sensor_id;sensor_type;location;lat;lon;timestamp;temperature;humidity
5172;DHT22;2605;49.770;9.868;2022-09-03T00:05:20;14.40;99.90
5172;DHT22;2605;49.770;9.868;2022-09-03T00:08:15;14.30;99.90
5172;DHT22;2605;49.770;9.868;2022-09-03T00:10:58;14.30;99.90
5172;DHT22;2605;49.770;9.868;2022-09-03T00:13:34;14.30;99.90
5172;DHT22;2605;49.770;9.868;2022-09-03T00:16:03;14.30;99.90
5172;DHT22;2605;49.770;9.868;2022-09-03T00:18:41;14.30;99.90
5172;DHT22;2605;49.770;9.868;2022-09-03T00:21:15;14.20;99.90
5172;DHT22;2605;49.770;9.868;2022-09-03T00:23:43;14.20;99.90
5172;DHT22;2605;49.770;9.868;2022-09-03T00:28:41;14.10;99.90
5172;DHT22;2605;49.770;9.868;2022-09-03T00:31:40;14.00;99.90
5172;DHT22;2605;49.770;9.868;2022-09-03T00:34:25;14.00;99.90
5172;DHT22;2605;49.770;9.868;2022-09-03T00:36:53;14.00;99.90
5172;DHT22;2605;49.770;9.868;2022-09-03T00:39:22;13.90;99.90
5172;DHT22;2605;49.770;9.868;2022-09-03T00:45:00;13.80;99.90
5172;DHT22;2605;49.770;9.868;2022-09-03T00:52:59;13.80;99.90
5172;DHT22;2605;49.770;9.868;2022-09-03T01:00:51;13.80;99.90
5172;DHT22;2605;49.770;9.868;2022-09-03T01:03:39;13.80;99.90
5172;DHT22;2605;49.770;9.868;2022-09-03T01:06:23;13.80;99.90
5172;DHT22;2605;49.770;9.868;2022-09-03T01:09:00;13.80;99.90
5172;DHT22;2605;49.770;9.868;2022-09-03T01:11:50;13.80;99.90
5172;DHT22;2605;49.770;9.868;2022-09-03T01:23:03;13.70;99.90
5172;DHT22;2605;49.770;9.868;2022-09-03T01:31:15;13.60;99.90
5172;DHT22;2605;49.770;9.868;2022-09-03T01:39:54;13.50;99.90
5172;DHT22;2605;49.770;9.868;2022-09-03T01:42:33;13.50;99.90
5172;DHT22;2605;49.770;9.868;2022-09-03T01:48:28;13.40;99.90
5172;DHT22;2605;49.770;9.868;2022-09-03T01:51:20;13.40;99.90
5172;DHT22;2605;49.770;9.868;2022-09-03T01:59:30;13.30;99.90
5172;DHT22;2605;49.770;9.868;2022-09-03T02:04:32;13.30;99.90
5172;DHT22;2605;49.770;9.868;2022-09-03T02:06:59;13.30;99.90
5172;DHT22;2605;49.770;9.868;2022-09-03T02:09:25;13.30;99.90
5172;DHT22;2605;49.770;9.868;2022-09-03T02:12:10;13.20;99.90
5172;DHT22;2605;49.770;9.868;2022-09-03T02:14:38;13.10;99.90
5172;DHT22;2605;49.770;9.868;2022-09-03T02:17:05;13.10;99.90
5172;DHT22;2605;49.770;9.868;2022-09-03T02:19:32;13.10;99.90
5172;DHT22;2605;49.770;9.868;2022-09-03T02:21:58;13.00;99.90
5172;DHT22;2605;49.770;9.868;2022-09-03T02:24:25;13.00;99.90
5172;DHT22;2605;49.770;9.868;2022-09-03T02:26:52;13.00;99.90
5172;DHT22;2605;49.770;9.868;2022-09-03T02:29:18;13.00;99.90
5172;DHT22;2605;49.770;9.868;2022-09-03T02:31:44;12.90;99.90
5172;DHT22;2605;49.770;9.868;2022-09-03T02:34:10;12.90;99.90
5172;DHT22;2605;49.770;9.868;2022-09-03T02:36:41;12.90;99.90
5172;DHT22;2605;49.770;9.868;2022-09-03T02:39:08;12.90;99.90
5172;DHT22;2605;49.770;9.868;2022-09-03T02:41:33;12.80;99.90
5172;DHT22;2605;49.770;9.868;2022-09-03T02:44:12;12.80;99.90
5172;DHT22;2605;49.770;9.868;2022-09-03T02:46:52;12.80;99.90
5172;DHT22;2605;49.770;9.868;2022-09-03T02:49:18;12.80;99.90
5172;DHT22;2605;49.770;9.868;2022-09-03T02:51:43;12.80;99.90
5172;DHT22;2605;49.770;9.868;2022-09-03T02:54:10;12.70;99.90
5172;DHT22;2605;49.770;9.868;2022-09-03T02:56:37;12.70;99.90
5172;DHT22;2605;49.770;9.868;2022-09-03T02:59:04;12.70;99.90
5172;DHT22;2605;49.770;9.868;2022-09-03T03:01:31;12.70;99.90
5172;DHT22;2605;49.770;9.868;2022-09-03T03:03:56;12.60;99.90
5172;DHT22;2605;49.770;9.868;2022-09-03T03:06:22;12.70;99.90
5172;DHT22;2605;49.770;9.868;2022-09-03T03:08:49;12.70;99.90
5172;DHT22;2605;49.770;9.868;2022-09-03T03:11:15;12.70;99.90
5172;DHT22;2605;49.770;9.868;2022-09-03T03:13:43;12.70;99.90
5172;DHT22;2605;49.770;9.868;2022-09-03T03:16:09;12.70;99.90
5172;DHT22;2605;49.770;9.868;2022-09-03T03:18:35;12.70;99.90
5172;DHT22;2605;49.770;9.868;2022-09-03T03:21:09;12.70;99.90
5172;DHT22;2605;49.770;9.868;2022-09-03T03:23:36;12.70;99.90
5172;DHT22;2605;49.770;9.868;2022-09-03T03:26:07;12.70;99.90
5172;DHT22;2605;49.770;9.868;2022-09-03T03:28:33;12.60;99.90
5172;DHT22;2605;49.770;9.868;2022-09-03T03:31:07;12.70;99.90
5172;DHT22;2605;49.770;9.868;2022-09-03T03:33:33;12.70;99.90
5172;DHT22;2605;49.770;9.868;2022-09-03T03:36:10;12.70;99.90
5172;DHT22;2605;49.770;9.868;2022-09-03T03:38:36;12.70;99.90
5172;DHT22;2605;49.770;9.868;2022-09-03T03:41:08;12.70;99.90
5172;DHT22;2605;49.770;9.868;2022-09-03T03:43:34;12.70;99.90
5172;DHT22;2605;49.770;9.868;2022-09-03T03:46:00;12.80;99.90
5172;DHT22;2605;49.770;9.868;2022-09-03T03:48:25;12.90;99.90
5172;DHT22;2605;49.770;9.868;2022-09-03T03:50:51;12.90;99.90
5172;DHT22;2605;49.770;9.868;2022-09-03T03:53:17;13.00;99.90
5172;DHT22;2605;49.770;9.868;2022-09-03T03:55:43;13.10;99.90
5172;DHT22;2605;49.770;9.868;2022-09-03T03:58:08;13.20;99.90
5172;DHT22;2605;49.770;9.868;2022-09-03T04:00:34;13.20;99.90
5172;DHT22;2605;49.770;9.868;2022-09-03T04:03:01;13.30;99.90
5172;DHT22;2605;49.770;9.868;2022-09-03T04:05:27;13.40;99.90
5172;DHT22;2605;49.770;9.868;2022-09-03T04:07:52;13.40;99.90
5172;DHT22;2605;49.770;9.868;2022-09-03T04:10:17;13.40;99.90
5172;DHT22;2605;49.770;9.868;2022-09-03T04:12:43;13.40;99.90
5172;DHT22;2605;49.770;9.868;2022-09-03T04:15:09;13.50;99.90
5172;DHT22;2605;49.770;9.868;2022-09-03T04:17:34;13.50;99.90
5172;DHT22;2605;49.770;9.868;2022-09-03T04:20:00;13.50;99.90
5172;DHT22;2605;49.770;9.868;2022-09-03T04:22:27;13.60;99.90
5172;DHT22;2605;49.770;9.868;2022-09-03T04:24:53;13.60;99.90
5172;DHT22;2605;49.770;9.868;2022-09-03T04:27:19;13.60;99.90
5172;DHT22;2605;49.770;9.868;2022-09-03T04:29:44;13.60;99.90
5172;DHT22;2605;49.770;9.868;2022-09-03T04:32:10;13.60;99.90
5172;DHT22;2605;49.770;9.868;2022-09-03T04:34:54;13.60;99.90
5172;DHT22;2605;49.770;9.868;2022-09-03T04:37:20;13.60;99.90
5172;DHT22;2605;49.770;9.868;2022-09-03T04:39:45;13.60;99.90
5172;DHT22;2605;49.770;9.868;2022-09-03T04:42:11;13.60;99.90
5172;DHT22;2605;49.770;9.868;2022-09-03T04:44:36;13.70;99.90
5172;DHT22;2605;49.770;9.868;2022-09-03T04:47:03;13.70;99.90
5172;DHT22;2605;49.770;9.868;2022-09-03T04:49:29;13.70;99.90
5172;DHT22;2605;49.770;9.868;2022-09-03T04:51:55;13.70;99.90
5172;DHT22;2605;49.770;9.868;2022-09-03T04:54:21;13.70;99.90
5172;DHT22;2605;49.770;9.868;2022-09-03T04:56:46;13.80;99.90
5172;DHT22;2605;49.770;9.868;2022-09-03T04:59:12;13.80;99.90
5172;DHT22;2605;49.770;9.868;2022-09-03T05:01:38;13.80;99.90
5172;DHT22;2605;49.770;9.868;2022-09-03T05:04:05;13.80;99.90
5172;DHT22;2605;49.770;9.868;2022-09-03T05:06:32;13.80;99.90
5172;DHT22;2605;49.770;9.868;2022-09-03T05:08:59;13.90;99.90
5172;DHT22;2605;49.770;9.868;2022-09-03T05:11:26;13.90;99.90
5172;DHT22;2605;49.770;9.868;2022-09-03T05:13:54;13.90;99.90
5172;DHT22;2605;49.770;9.868;2022-09-03T05:16:20;13.90;99.90
5172;DHT22;2605;49.770;9.868;2022-09-03T05:18:47;13.90;99.90
5172;DHT22;2605;49.770;9.868;2022-09-03T05:21:16;14.00;99.90
5172;DHT22;2605;49.770;9.868;2022-09-03T05:23:45;14.00;99.90
5172;DHT22;2605;49.770;9.868;2022-09-03T05:26:26;14.00;99.90
5172;DHT22;2605;49.770;9.868;2022-09-03T05:29:00;14.10;99.90
5172;DHT22;2605;49.770;9.868;2022-09-03T05:31:28;14.10;99.90
5172;DHT22;2605;49.770;9.868;2022-09-03T05:33:57;14.10;99.90
5172;DHT22;2605;49.770;9.868;2022-09-03T05:36:25;14.20;99.90
5172;DHT22;2605;49.770;9.868;2022-09-03T05:38:51;14.20;99.90
5172;DHT22;2605;49.770;9.868;2022-09-03T05:41:20;14.30;99.90
5172;DHT22;2605;49.770;9.868;2022-09-03T05:43:47;14.30;99.90
5172;DHT22;2605;49.770;9.868;2022-09-03T05:46:22;14.30;99.90
5172;DHT22;2605;49.770;9.868;2022-09-03T05:48:51;14.40;99.90
5172;DHT22;2605;49.770;9.868;2022-09-03T05:51:17;14.50;99.90
5172;DHT22;2605;49.770;9.868;2022-09-03T05:53:45;14.60;99.90
5172;DHT22;2605;49.770;9.868;2022-09-03T05:56:13;14.60;99.90
5172;DHT22;2605;49.770;9.868;2022-09-03T05:58:43;14.70;99.90
5172;DHT22;2605;49.770;9.868;2022-09-03T06:01:20;14.70;99.90
5172;DHT22;2605;49.770;9.868;2022-09-03T06:03:57;14.80;99.90
5172;DHT22;2605;49.770;9.868;2022-09-03T06:06:24;14.90;99.90
5172;DHT22;2605;49.770;9.868;2022-09-03T06:08:50;14.90;99.90
5172;DHT22;2605;49.770;9.868;2022-09-03T06:11:16;15.00;99.90
5172;DHT22;2605;49.770;9.868;2022-09-03T06:13:41;15.00;99.90
5172;DHT22;2605;49.770;9.868;2022-09-03T06:16:10;15.10;99.90
5172;DHT22;2605;49.770;9.868;2022-09-03T06:18:35;15.30;99.90
5172;DHT22;2605;49.770;9.868;2022-09-03T06:21:06;15.40;99.90
5172;DHT22;2605;49.770;9.868;2022-09-03T06:23:33;15.50;99.90
5172;DHT22;2605;49.770;9.868;2022-09-03T06:26:09;15.60;99.90
5172;DHT22;2605;49.770;9.868;2022-09-03T06:28:37;15.60;99.90
5172;DHT22;2605;49.770;9.868;2022-09-03T06:31:05;15.60;99.90
5172;DHT22;2605;49.770;9.868;2022-09-03T06:33:33;15.60;99.90
5172;DHT22;2605;49.770;9.868;2022-09-03T06:36:01;15.60;99.90
5172;DHT22;2605;49.770;9.868;2022-09-03T06:38:29;15.70;99.90
5172;DHT22;2605;49.770;9.868;2022-09-03T06:41:02;15.70;99.90
5172;DHT22;2605;49.770;9.868;2022-09-03T06:43:34;15.80;99.90
5172;DHT22;2605;49.770;9.868;2022-09-03T06:46:05;15.90;99.90
5172;DHT22;2605;49.770;9.868;2022-09-03T06:48:32;16.00;99.90
5172;DHT22;2605;49.770;9.868;2022-09-03T06:51:10;16.00;99.90
5172;DHT22;2605;49.770;9.868;2022-09-03T06:53:38;16.10;99.90
5172;DHT22;2605;49.770;9.868;2022-09-03T06:56:09;16.10;99.90
5172;DHT22;2605;49.770;9.868;2022-09-03T06:58:42;16.20;99.90
5172;DHT22;2605;49.770;9.868;2022-09-03T07:01:11;16.30;99.90
5172;DHT22;2605;49.770;9.868;2022-09-03T07:03:38;16.40;99.90
5172;DHT22;2605;49.770;9.868;2022-09-03T07:06:05;16.40;99.90
5172;DHT22;2605;49.770;9.868;2022-09-03T07:08:32;16.50;99.90
5172;DHT22;2605;49.770;9.868;2022-09-03T07:10:59;16.70;99.90
5172;DHT22;2605;49.770;9.868;2022-09-03T07:13:27;16.90;99.90
5172;DHT22;2605;49.770;9.868;2022-09-03T07:16:11;17.10;99.90
5172;DHT22;2605;49.770;9.868;2022-09-03T07:18:38;17.20;99.90
5172;DHT22;2605;49.770;9.868;2022-09-03T07:21:06;17.40;99.90
5172;DHT22;2605;49.770;9.868;2022-09-03T07:23:33;17.50;99.90
5172;DHT22;2605;49.770;9.868;2022-09-03T07:26:04;17.60;99.90
5172;DHT22;2605;49.770;9.868;2022-09-03T07:28:30;17.70;99.90
5172;DHT22;2605;49.770;9.868;2022-09-03T07:31:08;17.90;99.90
5172;DHT22;2605;49.770;9.868;2022-09-03T07:33:34;18.10;99.90
5172;DHT22;2605;49.770;9.868;2022-09-03T07:36:09;18.20;99.90
5172;DHT22;2605;49.770;9.868;2022-09-03T07:38:35;18.40;99.90
5172;DHT22;2605;49.770;9.868;2022-09-03T07:41:03;18.40;99.90
5172;DHT22;2605;49.770;9.868;2022-09-03T07:43:33;18.50;99.90
5172;DHT22;2605;49.770;9.868;2022-09-03T07:45:59;18.70;99.90
5172;DHT22;2605;49.770;9.868;2022-09-03T07:48:25;18.90;99.90
5172;DHT22;2605;49.770;9.868;2022-09-03T07:50:51;19.00;99.90
5172;DHT22;2605;49.770;9.868;2022-09-03T07:53:19;19.30;99.90
5172;DHT22;2605;49.770;9.868;2022-09-03T07:55:45;19.40;99.90
5172;DHT22;2605;49.770;9.868;2022-09-03T07:58:12;19.60;99.90
5172;DHT22;2605;49.770;9.868;2022-09-03T08:00:38;19.80;99.90
5172;DHT22;2605;49.770;9.868;2022-09-03T08:03:04;20.00;99.90
5172;DHT22;2605;49.770;9.868;2022-09-03T08:05:33;20.20;99.90
5172;DHT22;2605;49.770;9.868;2022-09-03T08:08:03;20.50;99.90
5172;DHT22;2605;49.770;9.868;2022-09-03T08:10:30;20.90;99.90
5172;DHT22;2605;49.770;9.868;2022-09-03T08:12:58;20.90;99.90
5172;DHT22;2605;49.770;9.868;2022-09-03T08:15:24;20.80;99.90
5172;DHT22;2605;49.770;9.868;2022-09-03T08:17:50;20.90;99.90
5172;DHT22;2605;49.770;9.868;2022-09-03T08:20:16;21.00;99.90
5172;DHT22;2605;49.770;9.868;2022-09-03T08:22:42;20.90;99.90
5172;DHT22;2605;49.770;9.868;2022-09-03T08:25:08;20.90;99.90
5172;DHT22;2605;49.770;9.868;2022-09-03T08:27:33;20.90;99.90
5172;DHT22;2605;49.770;9.868;2022-09-03T08:29:59;21.00;99.90
5172;DHT22;2605;49.770;9.868;2022-09-03T08:32:25;21.00;99.90
5172;DHT22;2605;49.770;9.868;2022-09-03T08:34:51;21.20;99.90
5172;DHT22;2605;49.770;9.868;2022-09-03T08:37:17;21.50;99.90
5172;DHT22;2605;49.770;9.868;2022-09-03T08:39:43;21.80;99.90
5172;DHT22;2605;49.770;9.868;2022-09-03T08:44:59;21.60;99.90
5172;DHT22;2605;49.770;9.868;2022-09-03T08:47:43;21.70;99.90
5172;DHT22;2605;49.770;9.868;2022-09-03T08:50:28;22.10;99.90
5172;DHT22;2605;49.770;9.868;2022-09-03T08:53:21;22.70;99.90
5172;DHT22;2605;49.770;9.868;2022-09-03T08:56:20;22.90;99.90
5172;DHT22;2605;49.770;9.868;2022-09-03T08:58:46;23.10;99.90
5172;DHT22;2605;49.770;9.868;2022-09-03T09:01:22;23.10;99.90
5172;DHT22;2605;49.770;9.868;2022-09-03T09:04:10;23.30;99.90
5172;DHT22;2605;49.770;9.868;2022-09-03T09:06:51;23.60;99.90
5172;DHT22;2605;49.770;9.868;2022-09-03T09:09:29;23.70;99.90
5172;DHT22;2605;49.770;9.868;2022-09-03T09:12:28;23.70;99.90
5172;DHT22;2605;49.770;9.868;2022-09-03T09:18:09;23.30;99.90
5172;DHT22;2605;49.770;9.868;2022-09-03T09:23:30;23.40;99.90
5172;DHT22;2605;49.770;9.868;2022-09-03T09:25:59;23.50;99.90
5172;DHT22;2605;49.770;9.868;2022-09-03T09:28:34;23.60;99.90
5172;DHT22;2605;49.770;9.868;2022-09-03T09:31:02;23.40;99.90
5172;DHT22;2605;49.770;9.868;2022-09-03T09:33:29;23.30;99.90
5172;DHT22;2605;49.770;9.868;2022-09-03T09:35:58;23.60;99.90
5172;DHT22;2605;49.770;9.868;2022-09-03T09:38:34;23.90;99.90
5172;DHT22;2605;49.770;9.868;2022-09-03T09:41:17;24.00;99.90
5172;DHT22;2605;49.770;9.868;2022-09-03T09:43:45;23.90;99.90
5172;DHT22;2605;49.770;9.868;2022-09-03T09:46:14;24.00;99.90
5172;DHT22;2605;49.770;9.868;2022-09-03T09:48:50;24.40;99.90
5172;DHT22;2605;49.770;9.868;2022-09-03T09:51:20;24.90;99.90
5172;DHT22;2605;49.770;9.868;2022-09-03T09:53:46;24.90;99.90
5172;DHT22;2605;49.770;9.868;2022-09-03T09:56:22;24.90;99.90
5172;DHT22;2605;49.770;9.868;2022-09-03T09:58:48;25.10;99.90
5172;DHT22;2605;49.770;9.868;2022-09-03T10:01:20;25.30;99.90
5172;DHT22;2605;49.770;9.868;2022-09-03T10:03:56;25.60;99.90
5172;DHT22;2605;49.770;9.868;2022-09-03T10:06:23;26.00;99.90
5172;DHT22;2605;49.770;9.868;2022-09-03T10:09:11;26.30;99.90
5172;DHT22;2605;49.770;9.868;2022-09-03T10:11:41;26.90;99.90
5172;DHT22;2605;49.770;9.868;2022-09-03T10:14:21;26.80;99.90
5172;DHT22;2605;49.770;9.868;2022-09-03T10:16:56;27.10;99.90
5172;DHT22;2605;49.770;9.868;2022-09-03T10:19:49;26.80;99.90
5172;DHT22;2605;49.770;9.868;2022-09-03T10:22:43;27.00;99.90
5172;DHT22;2605;49.770;9.868;2022-09-03T10:25:13;27.20;99.90
5172;DHT22;2605;49.770;9.868;2022-09-03T10:27:40;27.00;99.90
5172;DHT22;2605;49.770;9.868;2022-09-03T10:30:10;27.10;99.90
5172;DHT22;2605;49.770;9.868;2022-09-03T10:33:04;27.20;99.90
5172;DHT22;2605;49.770;9.868;2022-09-03T10:35:52;27.70;99.90
5172;DHT22;2605;49.770;9.868;2022-09-03T10:38:32;27.80;99.90
5172;DHT22;2605;49.770;9.868;2022-09-03T10:47:02;28.00;99.90
5172;DHT22;2605;49.770;9.868;2022-09-03T10:50:21;27.80;99.90
5172;DHT22;2605;49.770;9.868;2022-09-03T10:52:38;28.00;99.90
5172;DHT22;2605;49.770;9.868;2022-09-03T11:01:02;29.20;99.90
5172;DHT22;2605;49.770;9.868;2022-09-03T11:03:45;29.30;99.90
5172;DHT22;2605;49.770;9.868;2022-09-03T11:06:21;29.30;99.90
5172;DHT22;2605;49.770;9.868;2022-09-03T11:09:03;29.10;99.90
5172;DHT22;2605;49.770;9.868;2022-09-03T11:11:53;29.00;99.90
5172;DHT22;2605;49.770;9.868;2022-09-03T11:14:30;28.80;99.90
5172;DHT22;2605;49.770;9.868;2022-09-03T11:17:03;28.40;99.90
5172;DHT22;2605;49.770;9.868;2022-09-03T11:19:56;28.00;99.90
5172;DHT22;2605;49.770;9.868;2022-09-03T11:22:23;27.50;99.90
5172;DHT22;2605;49.770;9.868;2022-09-03T11:24:57;27.10;99.90
5172;DHT22;2605;49.770;9.868;2022-09-03T11:27:51;26.80;99.90
5172;DHT22;2605;49.770;9.868;2022-09-03T11:33:19;27.90;99.90
5172;DHT22;2605;49.770;9.868;2022-09-03T11:35:48;28.10;99.90
5172;DHT22;2605;49.770;9.868;2022-09-03T11:38:20;28.20;99.90
5172;DHT22;2605;49.770;9.868;2022-09-03T11:43:47;28.10;99.90
5172;DHT22;2605;49.770;9.868;2022-09-03T11:46:33;28.40;99.90
5172;DHT22;2605;49.770;9.868;2022-09-03T11:49:12;28.70;99.90
5172;DHT22;2605;49.770;9.868;2022-09-03T11:52:00;28.60;99.90
5172;DHT22;2605;49.770;9.868;2022-09-03T11:54:27;28.30;99.90
5172;DHT22;2605;49.770;9.868;2022-09-03T11:57:20;28.60;99.90
5172;DHT22;2605;49.770;9.868;2022-09-03T11:59:47;28.40;99.90
5172;DHT22;2605;49.770;9.868;2022-09-03T12:02:26;28.10;99.90
5172;DHT22;2605;49.770;9.868;2022-09-03T12:07:39;27.80;99.90
5172;DHT22;2605;49.770;9.868;2022-09-03T12:16:48;24.70;99.90
5172;DHT22;2605;49.770;9.868;2022-09-03T12:19:36;23.10;99.90
5172;DHT22;2605;49.770;9.868;2022-09-03T12:22:04;23.00;99.90
5172;DHT22;2605;49.770;9.868;2022-09-03T12:24:30;22.30;99.90
5172;DHT22;2605;49.770;9.868;2022-09-03T12:27:00;22.50;99.90
5172;DHT22;2605;49.770;9.868;2022-09-03T12:29:28;22.70;99.90
5172;DHT22;2605;49.770;9.868;2022-09-03T12:31:55;22.40;99.90
5172;DHT22;2605;49.770;9.868;2022-09-03T12:34:21;22.40;99.90
5172;DHT22;2605;49.770;9.868;2022-09-03T12:36:52;22.30;99.90
5172;DHT22;2605;49.770;9.868;2022-09-03T12:39:22;22.50;99.90
5172;DHT22;2605;49.770;9.868;2022-09-03T12:44:28;23.00;99.90
5172;DHT22;2605;49.770;9.868;2022-09-03T12:49:45;23.30;99.90
5172;DHT22;2605;49.770;9.868;2022-09-03T12:52:22;23.70;99.90
5172;DHT22;2605;49.770;9.868;2022-09-03T12:55:14;24.10;99.90
5172;DHT22;2605;49.770;9.868;2022-09-03T12:57:46;24.20;99.90
5172;DHT22;2605;49.770;9.868;2022-09-03T13:00:15;24.10;99.90
5172;DHT22;2605;49.770;9.868;2022-09-03T13:03:22;24.20;99.90
5172;DHT22;2605;49.770;9.868;2022-09-03T13:05:56;24.10;99.90
5172;DHT22;2605;49.770;9.868;2022-09-03T13:08:32;24.30;99.90
5172;DHT22;2605;49.770;9.868;2022-09-03T13:11:00;24.30;99.90
5172;DHT22;2605;49.770;9.868;2022-09-03T13:13:31;24.30;99.90
5172;DHT22;2605;49.770;9.868;2022-09-03T13:16:18;24.60;99.90
5172;DHT22;2605;49.770;9.868;2022-09-03T13:19:15;24.50;99.90
5172;DHT22;2605;49.770;9.868;2022-09-03T13:22:04;24.20;99.90
5172;DHT22;2605;49.770;9.868;2022-09-03T13:24:58;24.20;99.90
5172;DHT22;2605;49.770;9.868;2022-09-03T13:27:42;24.20;99.90
5172;DHT22;2605;49.770;9.868;2022-09-03T13:30:18;24.10;99.90
5172;DHT22;2605;49.770;9.868;2022-09-03T13:32:55;24.00;99.90
5172;DHT22;2605;49.770;9.868;2022-09-03T13:40:54;24.00;99.90
5172;DHT22;2605;49.770;9.868;2022-09-03T13:43:38;23.90;99.90
5172;DHT22;2605;49.770;9.868;2022-09-03T13:48:44;23.80;99.90
5172;DHT22;2605;49.770;9.868;2022-09-03T13:51:59;24.00;99.90
5172;DHT22;2605;49.770;9.868;2022-09-03T13:54:38;24.50;99.90
5172;DHT22;2605;49.770;9.868;2022-09-03T14:00:42;25.10;99.90
5172;DHT22;2605;49.770;9.868;2022-09-03T14:11:45;27.00;99.90
5172;DHT22;2605;49.770;9.868;2022-09-03T14:14:30;29.40;99.90
5172;DHT22;2605;49.770;9.868;2022-09-03T14:17:19;32.00;99.90
5172;DHT22;2605;49.770;9.868;2022-09-03T14:19:57;31.70;99.90
5172;DHT22;2605;49.770;9.868;2022-09-03T14:25:27;30.10;99.90
5172;DHT22;2605;49.770;9.868;2022-09-03T14:28:18;32.40;99.90
5172;DHT22;2605;49.770;9.868;2022-09-03T14:30:57;32.40;99.40
5172;DHT22;2605;49.770;9.868;2022-09-03T14:39:27;30.60;99.90
5172;DHT22;2605;49.770;9.868;2022-09-03T14:45:14;32.40;99.90
5172;DHT22;2605;49.770;9.868;2022-09-03T14:50:41;33.00;95.90
5172;DHT22;2605;49.770;9.868;2022-09-03T14:53:35;33.30;95.10
5172;DHT22;2605;49.770;9.868;2022-09-03T14:56:26;36.00;91.70
5172;DHT22;2605;49.770;9.868;2022-09-03T15:01:31;37.50;75.00
5172;DHT22;2605;49.770;9.868;2022-09-03T15:07:07;36.10;81.50
5172;DHT22;2605;49.770;9.868;2022-09-03T15:09:53;35.10;83.90
5172;DHT22;2605;49.770;9.868;2022-09-03T15:12:36;34.80;83.70
5172;DHT22;2605;49.770;9.868;2022-09-03T15:15:20;35.00;84.00
5172;DHT22;2605;49.770;9.868;2022-09-03T15:29:14;34.50;85.60
5172;DHT22;2605;49.770;9.868;2022-09-03T15:34:58;37.30;76.80
5172;DHT22;2605;49.770;9.868;2022-09-03T15:40:00;35.60;79.90
5172;DHT22;2605;49.770;9.868;2022-09-03T15:42:27;34.80;81.80
5172;DHT22;2605;49.770;9.868;2022-09-03T15:45:07;34.10;85.10
5172;DHT22;2605;49.770;9.868;2022-09-03T15:50:30;33.50;85.40
5172;DHT22;2605;49.770;9.868;2022-09-03T15:53:18;33.30;89.50
5172;DHT22;2605;49.770;9.868;2022-09-03T15:56:06;31.80;91.90
5172;DHT22;2605;49.770;9.868;2022-09-03T15:59:02;31.90;93.80
5172;DHT22;2605;49.770;9.868;2022-09-03T16:04:47;32.60;91.70
5172;DHT22;2605;49.770;9.868;2022-09-03T16:07:47;34.40;87.10
5172;DHT22;2605;49.770;9.868;2022-09-03T16:10:21;33.60;87.80
5172;DHT22;2605;49.770;9.868;2022-09-03T16:13:49;32.90;90.70
5172;DHT22;2605;49.770;9.868;2022-09-03T16:15:59;32.90;91.60
5172;DHT22;2605;49.770;9.868;2022-09-03T16:21:22;31.70;94.20
5172;DHT22;2605;49.770;9.868;2022-09-03T16:23:58;30.40;97.40
5172;DHT22;2605;49.770;9.868;2022-09-03T16:26:29;30.80;96.80
5172;DHT22;2605;49.770;9.868;2022-09-03T16:29:11;30.50;98.50
5172;DHT22;2605;49.770;9.868;2022-09-03T16:36:57;27.10;99.90
5172;DHT22;2605;49.770;9.868;2022-09-03T16:43:14;25.40;99.90
5172;DHT22;2605;49.770;9.868;2022-09-03T16:45:30;24.90;99.90
5172;DHT22;2605;49.770;9.868;2022-09-03T16:53:23;24.10;99.90
5172;DHT22;2605;49.770;9.868;2022-09-03T17:15:26;22.60;99.90
5172;DHT22;2605;49.770;9.868;2022-09-03T17:20:52;22.40;99.90
5172;DHT22;2605;49.770;9.868;2022-09-03T17:23:41;22.20;99.90
5172;DHT22;2605;49.770;9.868;2022-09-03T17:26:24;22.10;99.90
5172;DHT22;2605;49.770;9.868;2022-09-03T17:34:44;21.90;99.90
5172;DHT22;2605;49.770;9.868;2022-09-03T17:37:17;21.80;99.90
5172;DHT22;2605;49.770;9.868;2022-09-03T17:40:14;21.70;99.90
5172;DHT22;2605;49.770;9.868;2022-09-03T17:43:06;21.70;99.90
5172;DHT22;2605;49.770;9.868;2022-09-03T17:51:00;21.30;99.90
5172;DHT22;2605;49.770;9.868;2022-09-03T17:56:05;20.80;99.90
5172;DHT22;2605;49.770;9.868;2022-09-03T17:58:37;20.60;99.90
5172;DHT22;2605;49.770;9.868;2022-09-03T18:01:18;20.30;99.90
5172;DHT22;2605;49.770;9.868;2022-09-03T18:04:00;19.80;99.90
5172;DHT22;2605;49.770;9.868;2022-09-03T18:06:53;19.50;99.90
5172;DHT22;2605;49.770;9.868;2022-09-03T18:09:36;19.00;99.90
5172;DHT22;2605;49.770;9.868;2022-09-03T18:12:10;18.80;99.90
5172;DHT22;2605;49.770;9.868;2022-09-03T18:14:58;18.70;99.90
5172;DHT22;2605;49.770;9.868;2022-09-03T18:17:48;18.60;99.90
5172;DHT22;2605;49.770;9.868;2022-09-03T18:20:15;18.60;99.90
5172;DHT22;2605;49.770;9.868;2022-09-03T18:23:28;18.50;99.90
5172;DHT22;2605;49.770;9.868;2022-09-03T18:26:21;18.40;99.90
5172;DHT22;2605;49.770;9.868;2022-09-03T18:29:33;18.40;99.90
5172;DHT22;2605;49.770;9.868;2022-09-03T18:32:18;18.40;99.90
5172;DHT22;2605;49.770;9.868;2022-09-03T18:35:02;18.40;99.90
5172;DHT22;2605;49.770;9.868;2022-09-03T18:37:46;18.30;99.90
5172;DHT22;2605;49.770;9.868;2022-09-03T18:40:51;18.30;99.90
5172;DHT22;2605;49.770;9.868;2022-09-03T18:52:54;18.00;99.90
5172;DHT22;2605;49.770;9.868;2022-09-03T18:55:55;17.90;99.90
5172;DHT22;2605;49.770;9.868;2022-09-03T18:59:04;17.90;99.90
5172;DHT22;2605;49.770;9.868;2022-09-03T19:01:52;17.80;99.90
5172;DHT22;2605;49.770;9.868;2022-09-03T19:05:00;17.70;99.90
5172;DHT22;2605;49.770;9.868;2022-09-03T19:08:11;17.60;99.90
5172;DHT22;2605;49.770;9.868;2022-09-03T19:11:23;17.50;99.90
5172;DHT22;2605;49.770;9.868;2022-09-03T19:14:28;17.30;99.90
5172;DHT22;2605;49.770;9.868;2022-09-03T19:17:22;17.20;99.90
5172;DHT22;2605;49.770;9.868;2022-09-03T19:20:16;17.20;99.90
5172;DHT22;2605;49.770;9.868;2022-09-03T19:23:02;17.10;99.90
5172;DHT22;2605;49.770;9.868;2022-09-03T19:25:46;17.00;99.90
5172;DHT22;2605;49.770;9.868;2022-09-03T19:28:32;16.90;99.90
5172;DHT22;2605;49.770;9.868;2022-09-03T19:31:36;16.80;99.90
5172;DHT22;2605;49.770;9.868;2022-09-03T19:35:02;16.80;99.90
5172;DHT22;2605;49.770;9.868;2022-09-03T19:41:30;16.70;99.90
5172;DHT22;2605;49.770;9.868;2022-09-03T19:44:20;16.60;99.90
5172;DHT22;2605;49.770;9.868;2022-09-03T19:47:06;16.50;99.90
5172;DHT22;2605;49.770;9.868;2022-09-03T19:49:58;16.50;99.90
5172;DHT22;2605;49.770;9.868;2022-09-03T19:55:43;16.50;99.90
5172;DHT22;2605;49.770;9.868;2022-09-03T19:58:30;16.40;99.90
5172;DHT22;2605;49.770;9.868;2022-09-03T20:01:16;16.40;99.90
5172;DHT22;2605;49.770;9.868;2022-09-03T20:04:13;16.40;99.90
5172;DHT22;2605;49.770;9.868;2022-09-03T20:06:59;16.30;99.90
5172;DHT22;2605;49.770;9.868;2022-09-03T20:09:45;16.20;99.90
5172;DHT22;2605;49.770;9.868;2022-09-03T20:12:33;16.20;99.90
5172;DHT22;2605;49.770;9.868;2022-09-03T20:15:06;16.10;99.90
5172;DHT22;2605;49.770;9.868;2022-09-03T20:17:45;16.10;99.90
5172;DHT22;2605;49.770;9.868;2022-09-03T20:23:11;16.00;99.90
5172;DHT22;2605;49.770;9.868;2022-09-03T20:28:58;15.90;99.90
5172;DHT22;2605;49.770;9.868;2022-09-03T20:31:36;15.80;99.90
5172;DHT22;2605;49.770;9.868;2022-09-03T20:37:17;15.80;99.90
5172;DHT22;2605;49.770;9.868;2022-09-03T20:40:07;15.70;99.90
5172;DHT22;2605;49.770;9.868;2022-09-03T20:48:24;15.60;99.90
5172;DHT22;2605;49.770;9.868;2022-09-03T20:51:05;15.60;99.90
5172;DHT22;2605;49.770;9.868;2022-09-03T20:56:38;15.60;99.90
5172;DHT22;2605;49.770;9.868;2022-09-03T20:59:37;15.50;99.90